sensor_id;sensor_type;location;lat;lon;timestamp;temperature;humidity
15257;DHT22;7731;50.720;6.912;2023-02-28T00:00:45;0.90;39.90
15257;DHT22;7731;50.720;6.912;2023-02-28T00:03:18;0.80;84.80
15257;DHT22;7731;50.720;6.912;2023-02-28T00:05:48;0.80;75.20
15257;DHT22;7731;50.720;6.912;2023-02-28T00:08:18;0.70;89.80
15257;DHT22;7731;50.720;6.912;2023-02-28T00:10:49;0.90;96.10
15257;DHT22;7731;50.720;6.912;2023-02-28T00:13:19;0.90;74.70
15257;DHT22;7731;50.720;6.912;2023-02-28T00:15:59;0.90;90.80
15257;DHT22;7731;50.720;6.912;2023-02-28T00:18:32;0.70;99.90
15257;DHT22;7731;50.720;6.912;2023-02-28T00:21:03;0.60;99.90
15257;DHT22;7731;50.720;6.912;2023-02-28T00:23:35;0.60;99.90
15257;DHT22;7731;50.720;6.912;2023-02-28T00:26:05;0.50;99.90
15257;DHT22;7731;50.720;6.912;2023-02-28T00:28:35;0.50;99.90
15257;DHT22;7731;50.720;6.912;2023-02-28T00:31:06;0.50;99.90
15257;DHT22;7731;50.720;6.912;2023-02-28T00:33:39;0.50;99.90
15257;DHT22;7731;50.720;6.912;2023-02-28T00:36:11;0.60;99.90
15257;DHT22;7731;50.720;6.912;2023-02-28T00:38:41;0.70;99.90
15257;DHT22;7731;50.720;6.912;2023-02-28T00:41:11;0.70;99.90
15257;DHT22;7731;50.720;6.912;2023-02-28T00:43:42;0.80;99.70
15257;DHT22;7731;50.720;6.912;2023-02-28T00:46:13;0.80;95.10
15257;DHT22;7731;50.720;6.912;2023-02-28T00:48:46;0.80;83.40
15257;DHT22;7731;50.720;6.912;2023-02-28T00:51:16;0.80;72.20
15257;DHT22;7731;50.720;6.912;2023-02-28T00:53:46;0.80;74.10
15257;DHT22;7731;50.720;6.912;2023-02-28T00:56:16;0.80;78.80
15257;DHT22;7731;50.720;6.912;2023-02-28T00:58:49;0.80;70.70
15257;DHT22;7731;50.720;6.912;2023-02-28T01:01:22;0.70;86.00
15257;DHT22;7731;50.720;6.912;2023-02-28T01:03:55;0.70;93.60
15257;DHT22;7731;50.720;6.912;2023-02-28T01:06:25;0.70;78.70
15257;DHT22;7731;50.720;6.912;2023-02-28T01:08:55;0.70;79.40
15257;DHT22;7731;50.720;6.912;2023-02-28T01:11:28;0.70;97.80
15257;DHT22;7731;50.720;6.912;2023-02-28T01:13:58;0.60;93.20
15257;DHT22;7731;50.720;6.912;2023-02-28T01:16:29;0.60;99.90
15257;DHT22;7731;50.720;6.912;2023-02-28T01:19:02;0.60;88.90
15257;DHT22;7731;50.720;6.912;2023-02-28T01:21:32;0.60;96.70
15257;DHT22;7731;50.720;6.912;2023-02-28T01:24:04;0.40;96.60
15257;DHT22;7731;50.720;6.912;2023-02-28T01:26:34;0.30;99.90
15257;DHT22;7731;50.720;6.912;2023-02-28T01:29:04;0.30;99.90
15257;DHT22;7731;50.720;6.912;2023-02-28T01:31:37;0.30;99.90
15257;DHT22;7731;50.720;6.912;2023-02-28T01:34:09;0.30;99.90
15257;DHT22;7731;50.720;6.912;2023-02-28T01:36:40;0.20;99.90
15257;DHT22;7731;50.720;6.912;2023-02-28T01:39:10;0.30;99.90
15257;DHT22;7731;50.720;6.912;2023-02-28T01:41:40;0.30;99.90
15257;DHT22;7731;50.720;6.912;2023-02-28T01:47:42;0.20;99.90
15257;DHT22;7731;50.720;6.912;2023-02-28T01:50:19;0.00;99.90
15257;DHT22;7731;50.720;6.912;2023-02-28T01:52:55;-0.10;99.90
15257;DHT22;7731;50.720;6.912;2023-02-28T01:55:30;-0.20;99.90
15257;DHT22;7731;50.720;6.912;2023-02-28T01:58:04;-0.20;99.90
15257;DHT22;7731;50.720;6.912;2023-02-28T02:00:37;0.00;99.90
15257;DHT22;7731;50.720;6.912;2023-02-28T02:03:12;0.10;99.90
15257;DHT22;7731;50.720;6.912;2023-02-28T02:05:50;0.20;99.90
15257;DHT22;7731;50.720;6.912;2023-02-28T02:08:23;0.10;99.90
15257;DHT22;7731;50.720;6.912;2023-02-28T02:10:57;0.10;99.90
15257;DHT22;7731;50.720;6.912;2023-02-28T02:13:40;0.10;99.90
15257;DHT22;7731;50.720;6.912;2023-02-28T02:16:38;0.20;99.90
15257;DHT22;7731;50.720;6.912;2023-02-28T02:26:29;0.00;99.90
15257;DHT22;7731;50.720;6.912;2023-02-28T02:33:17;0.20;99.90
15257;DHT22;7731;50.720;6.912;2023-02-28T02:36:23;0.20;97.70
15257;DHT22;7731;50.720;6.912;2023-02-28T02:39:02;0.00;99.90
15257;DHT22;7731;50.720;6.912;2023-02-28T02:41:40;0.00;99.90
15257;DHT22;7731;50.720;6.912;2023-02-28T02:44:21;0.00;99.90
15257;DHT22;7731;50.720;6.912;2023-02-28T02:47:03;0.00;99.90
15257;DHT22;7731;50.720;6.912;2023-02-28T02:49:38;0.00;99.90
15257;DHT22;7731;50.720;6.912;2023-02-28T02:52:18;0.00;99.90
15257;DHT22;7731;50.720;6.912;2023-02-28T02:54:56;-0.10;99.90
15257;DHT22;7731;50.720;6.912;2023-02-28T02:57:33;0.00;99.90
15257;DHT22;7731;50.720;6.912;2023-02-28T03:00:10;-0.10;99.90
15257;DHT22;7731;50.720;6.912;2023-02-28T03:02:43;-0.10;99.90
15257;DHT22;7731;50.720;6.912;2023-02-28T03:05:19;-0.10;99.90
15257;DHT22;7731;50.720;6.912;2023-02-28T03:07:56;-0.20;99.90
15257;DHT22;7731;50.720;6.912;2023-02-28T03:10:46;-0.30;99.90
15257;DHT22;7731;50.720;6.912;2023-02-28T03:17:00;-0.20;99.90
15257;DHT22;7731;50.720;6.912;2023-02-28T03:19:59;0.00;99.90
15257;DHT22;7731;50.720;6.912;2023-02-28T03:22:49;0.00;99.90
15257;DHT22;7731;50.720;6.912;2023-02-28T03:25:35;0.00;99.90
15257;DHT22;7731;50.720;6.912;2023-02-28T03:28:17;0.00;99.90
15257;DHT22;7731;50.720;6.912;2023-02-28T03:30:54;0.00;99.90
15257;DHT22;7731;50.720;6.912;2023-02-28T03:33:32;0.00;99.90
15257;DHT22;7731;50.720;6.912;2023-02-28T03:36:13;0.00;99.90
15257;DHT22;7731;50.720;6.912;2023-02-28T03:38:49;-0.20;99.90
15257;DHT22;7731;50.720;6.912;2023-02-28T03:41:31;-0.30;99.90
15257;DHT22;7731;50.720;6.912;2023-02-28T03:44:13;-0.20;99.90
15257;DHT22;7731;50.720;6.912;2023-02-28T03:46:49;-0.30;99.90
15257;DHT22;7731;50.720;6.912;2023-02-28T03:49:30;-0.40;99.90
15257;DHT22;7731;50.720;6.912;2023-02-28T03:52:06;-0.40;99.90
15257;DHT22;7731;50.720;6.912;2023-02-28T03:54:41;-0.30;99.90
15257;DHT22;7731;50.720;6.912;2023-02-28T03:57:22;-0.30;99.90
15257;DHT22;7731;50.720;6.912;2023-02-28T04:00:06;-0.30;99.90
15257;DHT22;7731;50.720;6.912;2023-02-28T04:02:40;-0.20;99.90
15257;DHT22;7731;50.720;6.912;2023-02-28T04:05:10;-0.30;99.90
15257;DHT22;7731;50.720;6.912;2023-02-28T04:07:41;-0.30;99.90
15257;DHT22;7731;50.720;6.912;2023-02-28T04:10:12;-0.30;99.90
15257;DHT22;7731;50.720;6.912;2023-02-28T04:12:46;-0.40;99.90
15257;DHT22;7731;50.720;6.912;2023-02-28T04:15:17;-0.50;99.90
15257;DHT22;7731;50.720;6.912;2023-02-28T04:17:51;-0.50;99.90
15257;DHT22;7731;50.720;6.912;2023-02-28T04:20:22;-0.50;99.90
15257;DHT22;7731;50.720;6.912;2023-02-28T04:22:52;-0.50;99.90
15257;DHT22;7731;50.720;6.912;2023-02-28T04:25:22;-0.50;99.10
15257;DHT22;7731;50.720;6.912;2023-02-28T04:27:55;-0.40;97.60
15257;DHT22;7731;50.720;6.912;2023-02-28T04:30:25;-0.40;92.50
15257;DHT22;7731;50.720;6.912;2023-02-28T04:32:56;-0.60;99.50
15257;DHT22;7731;50.720;6.912;2023-02-28T04:35:26;-0.60;99.90
15257;DHT22;7731;50.720;6.912;2023-02-28T04:37:59;-0.40;92.00
15257;DHT22;7731;50.720;6.912;2023-02-28T04:40:30;-0.40;71.60
15257;DHT22;7731;50.720;6.912;2023-02-28T04:43:03;-0.40;65.80
15257;DHT22;7731;50.720;6.912;2023-02-28T04:45:33;-0.50;63.50
15257;DHT22;7731;50.720;6.912;2023-02-28T04:48:04;-0.50;72.80
15257;DHT22;7731;50.720;6.912;2023-02-28T04:50:35;-0.50;57.60
15257;DHT22;7731;50.720;6.912;2023-02-28T04:53:05;-0.50;51.90
15257;DHT22;7731;50.720;6.912;2023-02-28T04:55:35;-0.50;58.70
15257;DHT22;7731;50.720;6.912;2023-02-28T04:58:09;-0.40;64.40
15257;DHT22;7731;50.720;6.912;2023-02-28T05:00:39;-0.60;75.30
15257;DHT22;7731;50.720;6.912;2023-02-28T05:03:10;-0.60;61.30
15257;DHT22;7731;50.720;6.912;2023-02-28T05:05:40;-0.60;53.50
15257;DHT22;7731;50.720;6.912;2023-02-28T05:08:10;-0.60;58.60
15257;DHT22;7731;50.720;6.912;2023-02-28T05:10:40;-0.50;40.80
15257;DHT22;7731;50.720;6.912;2023-02-28T05:13:14;-0.50;22.40
15257;DHT22;7731;50.720;6.912;2023-02-28T05:15:44;-0.60;30.00
15257;DHT22;7731;50.720;6.912;2023-02-28T05:18:14;-0.60;26.50
15257;DHT22;7731;50.720;6.912;2023-02-28T05:20:44;-0.60;52.20
15257;DHT22;7731;50.720;6.912;2023-02-28T05:23:16;-0.60;32.80
15257;DHT22;7731;50.720;6.912;2023-02-28T05:25:49;-0.70;50.40
15257;DHT22;7731;50.720;6.912;2023-02-28T05:28:22;-0.70;81.20
15257;DHT22;7731;50.720;6.912;2023-02-28T05:30:52;-0.70;94.00
15257;DHT22;7731;50.720;6.912;2023-02-28T05:33:23;-0.70;95.10
15257;DHT22;7731;50.720;6.912;2023-02-28T05:35:54;-0.70;65.20
15257;DHT22;7731;50.720;6.912;2023-02-28T05:38:24;-0.80;98.90
15257;DHT22;7731;50.720;6.912;2023-02-28T05:40:54;-0.80;93.10
15257;DHT22;7731;50.720;6.912;2023-02-28T05:43:27;-0.90;97.50
15257;DHT22;7731;50.720;6.912;2023-02-28T05:45:58;-1.10;99.90
15257;DHT22;7731;50.720;6.912;2023-02-28T05:48:28;-1.20;99.90
15257;DHT22;7731;50.720;6.912;2023-02-28T05:50:58;-1.10;99.90
15257;DHT22;7731;50.720;6.912;2023-02-28T05:53:30;-1.10;99.90
15257;DHT22;7731;50.720;6.912;2023-02-28T05:56:01;-1.10;99.90
15257;DHT22;7731;50.720;6.912;2023-02-28T05:58:34;-1.30;99.90
15257;DHT22;7731;50.720;6.912;2023-02-28T06:01:21;-1.20;99.90
15257;DHT22;7731;50.720;6.912;2023-02-28T06:03:53;-1.20;99.90
15257;DHT22;7731;50.720;6.912;2023-02-28T06:06:28;-1.20;99.90
15257;DHT22;7731;50.720;6.912;2023-02-28T06:09:03;-1.20;99.90
15257;DHT22;7731;50.720;6.912;2023-02-28T06:11:34;-1.30;99.90
15257;DHT22;7731;50.720;6.912;2023-02-28T06:14:14;-1.40;99.90
15257;DHT22;7731;50.720;6.912;2023-02-28T06:16:47;-1.40;99.90
15257;DHT22;7731;50.720;6.912;2023-02-28T06:19:17;-1.30;99.90
15257;DHT22;7731;50.720;6.912;2023-02-28T06:21:50;-1.20;87.10
15257;DHT22;7731;50.720;6.912;2023-02-28T06:24:23;-1.10;37.70
15257;DHT22;7731;50.720;6.912;2023-02-28T06:26:55;-1.00;29.10
15257;DHT22;7731;50.720;6.912;2023-02-28T06:29:28;-0.90;2.40
15257;DHT22;7731;50.720;6.912;2023-02-28T06:31:59;-0.90;15.10
15257;DHT22;7731;50.720;6.912;2023-02-28T06:34:29;-0.80;4.50
15257;DHT22;7731;50.720;6.912;2023-02-28T06:37:02;-0.80;1.00
15257;DHT22;7731;50.720;6.912;2023-02-28T06:39:34;-0.80;1.00
15257;DHT22;7731;50.720;6.912;2023-02-28T06:42:05;-0.70;1.00
15257;DHT22;7731;50.720;6.912;2023-02-28T06:44:38;-0.70;1.00
15257;DHT22;7731;50.720;6.912;2023-02-28T06:47:09;-0.70;1.00
15257;DHT22;7731;50.720;6.912;2023-02-28T06:49:40;-0.70;1.00
15257;DHT22;7731;50.720;6.912;2023-02-28T06:52:11;-0.60;1.00
15257;DHT22;7731;50.720;6.912;2023-02-28T06:54:42;-0.60;1.00
15257;DHT22;7731;50.720;6.912;2023-02-28T06:57:12;-0.60;1.00
15257;DHT22;7731;50.720;6.912;2023-02-28T06:59:45;-0.60;1.00
15257;DHT22;7731;50.720;6.912;2023-02-28T07:02:15;-0.60;1.00
15257;DHT22;7731;50.720;6.912;2023-02-28T07:04:45;-0.60;1.00
15257;DHT22;7731;50.720;6.912;2023-02-28T07:07:15;-0.70;1.00
15257;DHT22;7731;50.720;6.912;2023-02-28T07:09:45;-0.70;1.00
15257;DHT22;7731;50.720;6.912;2023-02-28T07:12:16;-0.70;1.00
15257;DHT22;7731;50.720;6.912;2023-02-28T07:14:51;-0.60;1.00
15257;DHT22;7731;50.720;6.912;2023-02-28T07:17:23;-0.40;1.00
15257;DHT22;7731;50.720;6.912;2023-02-28T07:19:54;-0.30;1.00
15257;DHT22;7731;50.720;6.912;2023-02-28T07:22:27;-0.20;1.00
15257;DHT22;7731;50.720;6.912;2023-02-28T07:24:57;-0.30;1.00
15257;DHT22;7731;50.720;6.912;2023-02-28T07:27:27;-0.40;1.00
15257;DHT22;7731;50.720;6.912;2023-02-28T07:30:00;-0.30;1.00
15257;DHT22;7731;50.720;6.912;2023-02-28T07:32:31;-0.20;1.00
15257;DHT22;7731;50.720;6.912;2023-02-28T07:35:05;-0.10;1.00
15257;DHT22;7731;50.720;6.912;2023-02-28T07:37:37;0.10;1.00
15257;DHT22;7731;50.720;6.912;2023-02-28T07:40:10;0.10;1.00
15257;DHT22;7731;50.720;6.912;2023-02-28T07:42:41;0.30;1.00
15257;DHT22;7731;50.720;6.912;2023-02-28T07:45:14;0.40;1.00
15257;DHT22;7731;50.720;6.912;2023-02-28T07:47:44;0.70;1.00
15257;DHT22;7731;50.720;6.912;2023-02-28T07:50:17;0.90;94.10
15257;DHT22;7731;50.720;6.912;2023-02-28T07:52:48;1.00;99.90
15257;DHT22;7731;50.720;6.912;2023-02-28T07:55:18;1.20;1.00
15257;DHT22;7731;50.720;6.912;2023-02-28T07:57:51;2.10;1.00
15257;DHT22;7731;50.720;6.912;2023-02-28T08:00:26;4.10;34.60
15257;DHT22;7731;50.720;6.912;2023-02-28T08:02:59;6.40;1.00
15257;DHT22;7731;50.720;6.912;2023-02-28T08:05:29;8.30;99.90
15257;DHT22;7731;50.720;6.912;2023-02-28T08:07:59;10.20;91.20
15257;DHT22;7731;50.720;6.912;2023-02-28T08:10:35;11.00;1.00
15257;DHT22;7731;50.720;6.912;2023-02-28T08:13:06;11.80;1.00
15257;DHT22;7731;50.720;6.912;2023-02-28T08:15:42;13.00;1.00
15257;DHT22;7731;50.720;6.912;2023-02-28T08:18:14;13.00;1.00
15257;DHT22;7731;50.720;6.912;2023-02-28T08:20:44;13.20;1.00
15257;DHT22;7731;50.720;6.912;2023-02-28T08:23:14;13.00;1.00
15257;DHT22;7731;50.720;6.912;2023-02-28T08:25:45;12.50;1.00
15257;DHT22;7731;50.720;6.912;2023-02-28T08:28:22;12.80;1.00
15257;DHT22;7731;50.720;6.912;2023-02-28T08:30:56;13.50;1.00
15257;DHT22;7731;50.720;6.912;2023-02-28T08:33:27;14.50;1.00
15257;DHT22;7731;50.720;6.912;2023-02-28T08:35:58;15.30;1.00
15257;DHT22;7731;50.720;6.912;2023-02-28T08:38:28;14.70;1.00
15257;DHT22;7731;50.720;6.912;2023-02-28T08:40:59;14.60;1.00
15257;DHT22;7731;50.720;6.912;2023-02-28T08:43:31;14.50;1.00
15257;DHT22;7731;50.720;6.912;2023-02-28T08:46:04;14.20;1.00
15257;DHT22;7731;50.720;6.912;2023-02-28T08:48:35;14.00;1.00
15257;DHT22;7731;50.720;6.912;2023-02-28T08:51:08;14.60;1.00
15257;DHT22;7731;50.720;6.912;2023-02-28T08:53:41;15.00;1.00
15257;DHT22;7731;50.720;6.912;2023-02-28T08:56:13;15.00;1.00
15257;DHT22;7731;50.720;6.912;2023-02-28T08:58:45;14.50;1.00
15257;DHT22;7731;50.720;6.912;2023-02-28T09:01:21;13.30;1.00
15257;DHT22;7731;50.720;6.912;2023-02-28T09:03:58;13.60;1.00
15257;DHT22;7731;50.720;6.912;2023-02-28T09:06:32;14.60;1.00
15257;DHT22;7731;50.720;6.912;2023-02-28T09:09:02;15.60;1.00
15257;DHT22;7731;50.720;6.912;2023-02-28T09:11:34;16.40;1.00
15257;DHT22;7731;50.720;6.912;2023-02-28T09:14:05;15.60;1.00
15257;DHT22;7731;50.720;6.912;2023-02-28T09:16:40;15.20;1.00
15257;DHT22;7731;50.720;6.912;2023-02-28T09:19:11;15.50;1.00
15257;DHT22;7731;50.720;6.912;2023-02-28T09:21:41;15.50;1.00
15257;DHT22;7731;50.720;6.912;2023-02-28T09:24:12;15.10;1.00
15257;DHT22;7731;50.720;6.912;2023-02-28T09:26:42;14.30;1.00
15257;DHT22;7731;50.720;6.912;2023-02-28T09:29:30;14.00;1.00
15257;DHT22;7731;50.720;6.912;2023-02-28T09:32:08;14.00;1.00
15257;DHT22;7731;50.720;6.912;2023-02-28T09:34:38;14.20;1.00
15257;DHT22;7731;50.720;6.912;2023-02-28T09:37:08;13.30;1.00
15257;DHT22;7731;50.720;6.912;2023-02-28T09:39:38;12.90;1.00
15257;DHT22;7731;50.720;6.912;2023-02-28T09:42:18;12.50;1.00
15257;DHT22;7731;50.720;6.912;2023-02-28T09:44:55;13.10;1.00
15257;DHT22;7731;50.720;6.912;2023-02-28T09:47:33;13.60;1.00
15257;DHT22;7731;50.720;6.912;2023-02-28T09:50:15;13.30;1.00
15257;DHT22;7731;50.720;6.912;2023-02-28T09:52:53;12.20;1.00
15257;DHT22;7731;50.720;6.912;2023-02-28T09:55:30;11.90;1.00
15257;DHT22;7731;50.720;6.912;2023-02-28T09:58:18;12.00;1.00
15257;DHT22;7731;50.720;6.912;2023-02-28T10:01:02;13.20;1.00
15257;DHT22;7731;50.720;6.912;2023-02-28T10:03:40;13.20;1.00
15257;DHT22;7731;50.720;6.912;2023-02-28T10:06:19;14.00;1.00
15257;DHT22;7731;50.720;6.912;2023-02-28T10:08:57;13.40;1.00
15257;DHT22;7731;50.720;6.912;2023-02-28T10:11:33;13.50;1.00
15257;DHT22;7731;50.720;6.912;2023-02-28T10:14:12;12.90;1.00
15257;DHT22;7731;50.720;6.912;2023-02-28T10:16:50;12.30;1.00
15257;DHT22;7731;50.720;6.912;2023-02-28T10:19:31;12.90;1.00
15257;DHT22;7731;50.720;6.912;2023-02-28T10:22:11;13.50;1.00
15257;DHT22;7731;50.720;6.912;2023-02-28T10:24:47;13.60;1.00
15257;DHT22;7731;50.720;6.912;2023-02-28T10:27:20;13.20;1.00
15257;DHT22;7731;50.720;6.912;2023-02-28T10:29:52;11.00;1.00
15257;DHT22;7731;50.720;6.912;2023-02-28T10:32:25;10.00;1.00
15257;DHT22;7731;50.720;6.912;2023-02-28T10:35:09;10.70;1.00
15257;DHT22;7731;50.720;6.912;2023-02-28T10:37:47;11.30;1.00
15257;DHT22;7731;50.720;6.912;2023-02-28T10:40:31;12.50;1.00
15257;DHT22;7731;50.720;6.912;2023-02-28T10:43:05;11.70;1.00
15257;DHT22;7731;50.720;6.912;2023-02-28T10:46:01;12.10;1.00
15257;DHT22;7731;50.720;6.912;2023-02-28T10:48:36;12.10;1.00
15257;DHT22;7731;50.720;6.912;2023-02-28T10:51:15;13.20;1.00
15257;DHT22;7731;50.720;6.912;2023-02-28T10:53:49;13.00;1.00
15257;DHT22;7731;50.720;6.912;2023-02-28T10:56:30;10.80;1.00
15257;DHT22;7731;50.720;6.912;2023-02-28T10:59:08;9.50;1.00
15257;DHT22;7731;50.720;6.912;2023-02-28T11:01:56;9.00;1.00
15257;DHT22;7731;50.720;6.912;2023-02-28T11:04:35;8.70;1.00
15257;DHT22;7731;50.720;6.912;2023-02-28T11:07:20;9.10;1.00
15257;DHT22;7731;50.720;6.912;2023-02-28T11:09:55;8.40;1.00
15257;DHT22;7731;50.720;6.912;2023-02-28T11:12:30;8.80;1.00
15257;DHT22;7731;50.720;6.912;2023-02-28T11:15:24;9.70;1.00
15257;DHT22;7731;50.720;6.912;2023-02-28T11:17:58;10.80;1.00
15257;DHT22;7731;50.720;6.912;2023-02-28T11:20:32;11.40;1.00
15257;DHT22;7731;50.720;6.912;2023-02-28T11:23:12;10.50;1.00
15257;DHT22;7731;50.720;6.912;2023-02-28T11:25:49;9.50;1.00
15257;DHT22;7731;50.720;6.912;2023-02-28T11:28:28;9.60;1.00
15257;DHT22;7731;50.720;6.912;2023-02-28T11:31:15;9.50;1.00
15257;DHT22;7731;50.720;6.912;2023-02-28T11:33:51;10.40;1.00
15257;DHT22;7731;50.720;6.912;2023-02-28T11:36:24;10.90;1.00
15257;DHT22;7731;50.720;6.912;2023-02-28T11:39:03;11.90;1.00
15257;DHT22;7731;50.720;6.912;2023-02-28T11:41:54;11.30;1.00
15257;DHT22;7731;50.720;6.912;2023-02-28T11:44:49;11.60;1.00
15257;DHT22;7731;50.720;6.912;2023-02-28T11:47:36;11.80;1.00
15257;DHT22;7731;50.720;6.912;2023-02-28T11:50:20;12.10;1.00
15257;DHT22;7731;50.720;6.912;2023-02-28T11:53:02;11.50;1.00
15257;DHT22;7731;50.720;6.912;2023-02-28T11:55:45;11.50;1.00
15257;DHT22;7731;50.720;6.912;2023-02-28T11:58:34;11.50;1.00
15257;DHT22;7731;50.720;6.912;2023-02-28T12:01:42;11.30;1.00
15257;DHT22;7731;50.720;6.912;2023-02-28T12:05:14;10.90;1.00
15257;DHT22;7731;50.720;6.912;2023-02-28T12:08:11;11.70;1.00
15257;DHT22;7731;50.720;6.912;2023-02-28T12:11:09;10.60;1.00
15257;DHT22;7731;50.720;6.912;2023-02-28T12:13:51;9.30;1.00
15257;DHT22;7731;50.720;6.912;2023-02-28T12:16:50;8.70;1.00
15257;DHT22;7731;50.720;6.912;2023-02-28T12:20:04;8.20;1.00
15257;DHT22;7731;50.720;6.912;2023-02-28T12:22:44;7.90;1.00
15257;DHT22;7731;50.720;6.912;2023-02-28T12:25:44;8.00;1.00
15257;DHT22;7731;50.720;6.912;2023-02-28T12:28:28;7.20;1.00
15257;DHT22;7731;50.720;6.912;2023-02-28T12:31:08;7.20;1.00
15257;DHT22;7731;50.720;6.912;2023-02-28T12:33:47;7.40;1.00
15257;DHT22;7731;50.720;6.912;2023-02-28T12:36:26;7.70;1.00
15257;DHT22;7731;50.720;6.912;2023-02-28T12:39:02;7.90;1.00
15257;DHT22;7731;50.720;6.912;2023-02-28T12:41:41;7.40;1.00
15257;DHT22;7731;50.720;6.912;2023-02-28T12:44:28;7.40;1.00
15257;DHT22;7731;50.720;6.912;2023-02-28T12:47:05;7.10;1.00
15257;DHT22;7731;50.720;6.912;2023-02-28T12:49:46;7.10;1.00
15257;DHT22;7731;50.720;6.912;2023-02-28T12:52:24;7.50;1.00
15257;DHT22;7731;50.720;6.912;2023-02-28T12:55:05;7.60;1.00
15257;DHT22;7731;50.720;6.912;2023-02-28T12:57:49;7.80;1.00
15257;DHT22;7731;50.720;6.912;2023-02-28T13:00:34;7.80;1.00
15257;DHT22;7731;50.720;6.912;2023-02-28T13:06:39;8.00;1.00
15257;DHT22;7731;50.720;6.912;2023-02-28T13:09:19;8.30;1.00
15257;DHT22;7731;50.720;6.912;2023-02-28T13:11:52;7.90;1.00
15257;DHT22;7731;50.720;6.912;2023-02-28T13:14:30;7.90;1.00
15257;DHT22;7731;50.720;6.912;2023-02-28T13:17:18;7.90;1.00
15257;DHT22;7731;50.720;6.912;2023-02-28T13:20:00;7.80;1.00
15257;DHT22;7731;50.720;6.912;2023-02-28T13:22:40;7.80;1.00
15257;DHT22;7731;50.720;6.912;2023-02-28T13:28:58;7.30;1.00
15257;DHT22;7731;50.720;6.912;2023-02-28T13:35:15;7.60;1.00
15257;DHT22;7731;50.720;6.912;2023-02-28T13:38:32;7.60;1.00
15257;DHT22;7731;50.720;6.912;2023-02-28T13:44:16;7.40;16.00
15257;DHT22;7731;50.720;6.912;2023-02-28T13:47:19;7.40;10.00
15257;DHT22;7731;50.720;6.912;2023-02-28T13:50:19;7.10;21.90
15257;DHT22;7731;50.720;6.912;2023-02-28T13:53:03;7.10;24.90
15257;DHT22;7731;50.720;6.912;2023-02-28T13:56:06;7.00;27.20
15257;DHT22;7731;50.720;6.912;2023-02-28T13:58:54;7.30;44.40
15257;DHT22;7731;50.720;6.912;2023-02-28T14:01:41;7.50;13.30
15257;DHT22;7731;50.720;6.912;2023-02-28T14:04:53;7.50;18.80
15257;DHT22;7731;50.720;6.912;2023-02-28T14:07:32;7.40;26.30
15257;DHT22;7731;50.720;6.912;2023-02-28T14:10:15;7.30;25.10
15257;DHT22;7731;50.720;6.912;2023-02-28T14:13:02;7.20;52.70
15257;DHT22;7731;50.720;6.912;2023-02-28T14:15:56;7.10;57.50
15257;DHT22;7731;50.720;6.912;2023-02-28T14:18:31;7.10;46.00
15257;DHT22;7731;50.720;6.912;2023-02-28T14:21:21;7.10;39.50
15257;DHT22;7731;50.720;6.912;2023-02-28T14:24:37;7.00;42.80
15257;DHT22;7731;50.720;6.912;2023-02-28T14:27:35;7.10;51.50
15257;DHT22;7731;50.720;6.912;2023-02-28T14:33:44;7.10;81.40
15257;DHT22;7731;50.720;6.912;2023-02-28T14:36:32;7.10;60.90
15257;DHT22;7731;50.720;6.912;2023-02-28T14:39:07;7.30;69.60
15257;DHT22;7731;50.720;6.912;2023-02-28T14:41:45;7.30;52.40
15257;DHT22;7731;50.720;6.912;2023-02-28T14:44:18;7.10;84.50
15257;DHT22;7731;50.720;6.912;2023-02-28T14:46:52;7.10;96.50
15257;DHT22;7731;50.720;6.912;2023-02-28T14:49:27;7.20;92.00
15257;DHT22;7731;50.720;6.912;2023-02-28T14:52:14;7.20;79.40
15257;DHT22;7731;50.720;6.912;2023-02-28T14:54:54;7.00;77.40
15257;DHT22;7731;50.720;6.912;2023-02-28T14:57:29;7.20;96.40
15257;DHT22;7731;50.720;6.912;2023-02-28T15:00:06;7.20;94.50
15257;DHT22;7731;50.720;6.912;2023-02-28T15:02:43;7.30;77.70
15257;DHT22;7731;50.720;6.912;2023-02-28T15:05:25;7.20;63.00
15257;DHT22;7731;50.720;6.912;2023-02-28T15:08:06;7.20;62.20
15257;DHT22;7731;50.720;6.912;2023-02-28T15:10:43;6.90;66.10
15257;DHT22;7731;50.720;6.912;2023-02-28T15:13:15;6.50;78.90
15257;DHT22;7731;50.720;6.912;2023-02-28T15:15:49;6.40;98.00
15257;DHT22;7731;50.720;6.912;2023-02-28T15:18:44;6.30;99.90
15257;DHT22;7731;50.720;6.912;2023-02-28T15:21:21;6.30;99.90
15257;DHT22;7731;50.720;6.912;2023-02-28T15:24:02;6.20;99.90
15257;DHT22;7731;50.720;6.912;2023-02-28T15:26:39;6.30;99.90
15257;DHT22;7731;50.720;6.912;2023-02-28T15:29:15;6.40;99.90
15257;DHT22;7731;50.720;6.912;2023-02-28T15:31:51;6.50;99.90
15257;DHT22;7731;50.720;6.912;2023-02-28T15:34:29;6.30;99.90
15257;DHT22;7731;50.720;6.912;2023-02-28T15:37:26;6.40;99.90
15257;DHT22;7731;50.720;6.912;2023-02-28T15:40:10;6.40;99.90
15257;DHT22;7731;50.720;6.912;2023-02-28T15:42:57;6.30;99.90
15257;DHT22;7731;50.720;6.912;2023-02-28T15:45:33;6.20;99.90
15257;DHT22;7731;50.720;6.912;2023-02-28T15:48:18;6.20;99.90
15257;DHT22;7731;50.720;6.912;2023-02-28T15:50:53;6.20;99.90
15257;DHT22;7731;50.720;6.912;2023-02-28T15:53:27;6.00;99.90
15257;DHT22;7731;50.720;6.912;2023-02-28T15:56:06;6.10;99.90
15257;DHT22;7731;50.720;6.912;2023-02-28T15:58:50;6.20;99.90
15257;DHT22;7731;50.720;6.912;2023-02-28T16:01:25;6.10;99.90
15257;DHT22;7731;50.720;6.912;2023-02-28T16:04:03;6.20;99.90
15257;DHT22;7731;50.720;6.912;2023-02-28T16:06:37;6.30;99.90
15257;DHT22;7731;50.720;6.912;2023-02-28T16:09:13;6.30;99.90
15257;DHT22;7731;50.720;6.912;2023-02-28T16:11:48;6.10;99.90
15257;DHT22;7731;50.720;6.912;2023-02-28T16:14:22;6.10;99.90
15257;DHT22;7731;50.720;6.912;2023-02-28T16:16:56;6.00;99.90
15257;DHT22;7731;50.720;6.912;2023-02-28T16:19:33;6.10;99.90
15257;DHT22;7731;50.720;6.912;2023-02-28T16:22:04;5.80;99.90
15257;DHT22;7731;50.720;6.912;2023-02-28T16:24:34;5.80;99.90
15257;DHT22;7731;50.720;6.912;2023-02-28T16:27:16;5.90;99.90
15257;DHT22;7731;50.720;6.912;2023-02-28T16:29:50;5.80;99.90
15257;DHT22;7731;50.720;6.912;2023-02-28T16:32:20;5.80;99.90
15257;DHT22;7731;50.720;6.912;2023-02-28T16:34:50;5.80;99.90
15257;DHT22;7731;50.720;6.912;2023-02-28T16:37:20;5.70;99.90
15257;DHT22;7731;50.720;6.912;2023-02-28T16:39:50;5.70;99.90
15257;DHT22;7731;50.720;6.912;2023-02-28T16:42:27;5.70;99.90
15257;DHT22;7731;50.720;6.912;2023-02-28T16:44:58;5.70;99.90
15257;DHT22;7731;50.720;6.912;2023-02-28T16:47:28;5.70;99.90
15257;DHT22;7731;50.720;6.912;2023-02-28T16:49:59;5.70;99.90
15257;DHT22;7731;50.720;6.912;2023-02-28T16:52:29;5.70;99.90
15257;DHT22;7731;50.720;6.912;2023-02-28T16:54:59;5.50;99.90
15257;DHT22;7731;50.720;6.912;2023-02-28T16:57:33;5.30;99.90
15257;DHT22;7731;50.720;6.912;2023-02-28T17:00:04;5.20;99.90
15257;DHT22;7731;50.720;6.912;2023-02-28T17:02:35;5.20;99.90
15257;DHT22;7731;50.720;6.912;2023-02-28T17:05:10;5.20;99.90
15257;DHT22;7731;50.720;6.912;2023-02-28T17:07:42;5.10;99.90
15257;DHT22;7731;50.720;6.912;2023-02-28T17:10:15;5.00;99.90
15257;DHT22;7731;50.720;6.912;2023-02-28T17:12:52;4.80;99.90
15257;DHT22;7731;50.720;6.912;2023-02-28T17:15:39;4.70;99.90
15257;DHT22;7731;50.720;6.912;2023-02-28T17:18:13;4.60;99.90
15257;DHT22;7731;50.720;6.912;2023-02-28T17:20:46;4.50;99.90
15257;DHT22;7731;50.720;6.912;2023-02-28T17:23:17;4.50;99.90
15257;DHT22;7731;50.720;6.912;2023-02-28T17:25:47;4.50;99.90
15257;DHT22;7731;50.720;6.912;2023-02-28T17:28:26;4.50;1.00
15257;DHT22;7731;50.720;6.912;2023-02-28T17:30:56;4.50;1.00
15257;DHT22;7731;50.720;6.912;2023-02-28T17:33:27;4.50;1.00
15257;DHT22;7731;50.720;6.912;2023-02-28T17:35:57;4.50;1.00